»·PEaware :: JUS326 KEUG-KSEA

JUS326 :: KEUG-KSEA

FLIGHT INFORMATION

Flight Status: Arrived
Operator:
USA Jet
More flights by this operator :: More flights under this callsign
Pilot: Erik S. (3779)
Aircraft: BOEING 737-300
(B733)
More flights by this aircraft type
Origin: KEUG Mahlon Sweet
United States
Destination: KSEA Seattle-Tacoma Intl
United States
More flights between these airports :: More routes between these airports
Route: +EUG9 CVO UBG KRIEG HAWKZ6
File this flight plan on PilotEdge
Remarks:
Altitude:
(Current/Filed)
24,000ft
Speed:
(Current/Filed)
400kts
Departed: 18-Dec-17 10:52 AM
Arrived: 18-Dec-17 11:33 AM
Distance/Time
Traveled:
202nm/0:41
Distance/Time
To Go:
Arrived

Flight Plot

Page will automatically refresh every two minutes.

Flight plan parsing failed; only flown route is shown


Map Options




Map Legend


Flown Route
Filed Route
Departure Airport
Arrival Airport
Navaid (VOR, NDB)
Fix

Horizontal Profiles

Position Reports

Time Latitude Longitude Heading Altitude Ground
Speed
18-Dec-17 10:47 44.116450 -123.215593 171 381ft 0kts
18-Dec-17 10:48 44.116450 -123.215593 171 381ft 0kts
18-Dec-17 10:49 44.116450 -123.215593 171 381ft 0kts
18-Dec-17 10:50 44.116450 -123.215593 171 381ft 0kts
18-Dec-17 10:51 44.116450 -123.215593 171 381ft 0kts
18-Dec-17 10:52 44.116450 -123.215593 171 381ft 0kts
18-Dec-17 10:53 44.116450 -123.215593 171 381ft 0kts
18-Dec-17 10:54 44.116394 -123.215583 175 381ft 2kts
18-Dec-17 10:55 44.117579 -123.216923 1 381ft 17kts
18-Dec-17 10:56 44.123689 -123.217063 358 381ft 26kts
18-Dec-17 10:57 44.132206 -123.217102 357 381ft 34kts
18-Dec-17 10:58 44.129457 -123.219045 179 381ft 101kts
18-Dec-17 10:59 44.086286 -123.218049 177 2638ft 158kts
18-Dec-17 11:00 44.034061 -123.215757 178 4689ft 207kts
18-Dec-17 11:01 44.006625 -123.273694 292 6811ft 262kts
18-Dec-17 11:02 44.074163 -123.295261 4 9643ft 296kts
18-Dec-17 11:03 44.159270 -123.294945 354 11613ft 325kts
18-Dec-17 11:04 44.250328 -123.294701 354 14123ft 335kts
18-Dec-17 11:05 44.344742 -123.294260 354 16313ft 346kts
18-Dec-17 11:06 44.436247 -123.293813 354 18170ft 355kts
18-Dec-17 11:07 44.531410 -123.283550 9 19839ft 375kts
18-Dec-17 11:08 44.632437 -123.245147 9 21435ft 383kts
18-Dec-17 11:09 44.736115 -123.206989 8 22904ft 392kts
18-Dec-17 11:10 44.842625 -123.167886 8 24171ft 403kts
18-Dec-17 11:11 44.955111 -123.126363 8 24216ft 436kts
18-Dec-17 11:12 45.074057 -123.082197 7 24255ft 446kts
18-Dec-17 11:13 45.194315 -123.037414 7 24280ft 453kts
18-Dec-17 11:14 45.315844 -122.991927 6 24283ft 451kts
18-Dec-17 11:15 45.416175 -122.961213 2 24229ft 441kts
18-Dec-17 11:16 45.555952 -122.924878 2 24213ft 441kts
18-Dec-17 11:17 45.655677 -122.898704 3 24219ft 440kts
18-Dec-17 11:18 45.776044 -122.867578 2 24214ft 440kts
18-Dec-17 11:19 45.915438 -122.830672 3 24213ft 440kts
18-Dec-17 11:20 46.014956 -122.804194 3 24174ft 442kts
18-Dec-17 11:21 46.134860 -122.772171 3 22100ft 439kts
18-Dec-17 11:22 46.250375 -122.741128 3 20060ft 414kts
18-Dec-17 11:23 46.362389 -122.722637 350 18332ft 403kts
18-Dec-17 11:24 46.472374 -122.727727 351 16648ft 392kts
18-Dec-17 11:25 46.592819 -122.731990 351 14582ft 348kts
18-Dec-17 11:26 46.669084 -122.734712 350 13288ft 315kts
18-Dec-17 11:27 46.754533 -122.737842 350 11821ft 300kts
18-Dec-17 11:28 46.833001 -122.682273 33 11332ft 340kts
18-Dec-17 11:29 46.899314 -122.592876 39 10031ft 310kts
18-Dec-17 11:30 46.960452 -122.502090 43 8870ft 311kts
18-Dec-17 11:31 47.025981 -122.431174 26 7469ft 278kts
18-Dec-17 11:32 47.091062 -122.376715 27 6085ft 263kts
18-Dec-17 11:33 47.155749 -122.323952 27 5900ft 267kts
18-Dec-17 11:34 47.227435 -122.308044 359 4452ft 267kts
18-Dec-17 11:35 47.297524 -122.309574 3 2848ft 218kts
18-Dec-17 11:36 47.349003 -122.308644 1 1958ft 152kts
18-Dec-17 11:37 47.386449 -122.308352 0 1279ft 132kts
18-Dec-17 11:38 47.423068 -122.308068 0 626ft 132kts
18-Dec-17 11:39 47.443502 -122.307042 93 440ft 19kts
18-Dec-17 11:40 47.438570 -122.306392 179 440ft 19kts
18-Dec-17 11:41 47.436409 -122.304446 129 440ft 0kts
18-Dec-17 11:42 47.436409 -122.304446 129 440ft 0kts
18-Dec-17 11:43 47.436409 -122.304446 129 440ft 0kts
18-Dec-17 11:44 47.436409 -122.304446 129 440ft 0kts
18-Dec-17 11:45 47.436409 -122.304446 129 440ft 0kts
18-Dec-17 11:46 47.436409 -122.304446 129 440ft 0kts
18-Dec-17 11:47 47.436409 -122.304446 129 440ft 0kts
18-Dec-17 11:48 47.436409 -122.304446 129 440ft 0kts
18-Dec-17 11:49 47.436409 -122.304446 129 440ft 0kts
18-Dec-17 11:50 47.436409 -122.304446 129 440ft 0kts
18-Dec-17 11:51 47.436409 -122.304446 129 440ft 0kts
18-Dec-17 11:52 47.436409 -122.304446 129 440ft 0kts
18-Dec-17 11:53 47.436409 -122.304446 129 440ft 0kts
18-Dec-17 11:54 47.436409 -122.304446 129 440ft 0kts

Navigation Log

Ident Type
Flight plan parsing failed, navigation log unavailable